createdAt,value
2022-09-04T00:00:19.261Z,95038.88
2022-09-04T00:02:34.484Z,95043.56
2022-09-04T00:05:00.565Z,95047.25
2022-09-04T00:07:02.239Z,95044.97
2022-09-04T00:09:24.696Z,95044.56
2022-09-04T00:11:45.062Z,95044.56
2022-09-04T00:13:53.041Z,95054.94
2022-09-04T00:16:07.459Z,95046.19
2022-09-04T00:18:13.937Z,95046.59
2022-09-04T00:20:32.238Z,95047.41
2022-09-04T00:22:58.324Z,95054.34
2022-09-04T00:25:14.322Z,95045.75
2022-09-04T00:27:23.851Z,95048.22
2022-09-04T00:29:40.585Z,95049.41
2022-09-04T00:31:51.142Z,95061.41
2022-09-04T00:34:19.147Z,95060.72
2022-09-04T00:36:23.105Z,95057.88
2022-09-04T00:38:47.934Z,95064.56
2022-09-04T00:41:25.445Z,95051.72
2022-09-04T00:43:48.718Z,95056.97
2022-09-04T00:46:18.489Z,95057.41
2022-09-04T00:48:52.187Z,95056.16
2022-09-04T00:50:59.888Z,95055.09
2022-09-04T00:53:06.044Z,95050.03
2022-09-04T00:55:29.405Z,95047.09
2022-09-04T00:57:56.617Z,95058.97
2022-09-04T01:00:18.186Z,95057.72
2022-09-04T01:02:38.542Z,95047.41
2022-09-04T01:05:07.875Z,95052.97
2022-09-04T01:07:31.363Z,95061.19
2022-09-04T01:09:32.974Z,95061.25
2022-09-04T01:11:51.629Z,95053.34
2022-09-04T01:14:29.738Z,95050.50
2022-09-04T01:16:37.820Z,95058.72
2022-09-04T01:18:59.946Z,95064.81
2022-09-04T01:21:31.045Z,95067.47
2022-09-04T01:24:08.901Z,95061.16
2022-09-04T01:26:21.394Z,95058.31
2022-09-04T01:28:48.317Z,95059.34
2022-09-04T01:30:56.306Z,95051.19
2022-09-04T01:33:19.350Z,95049.78
2022-09-04T01:35:44.828Z,95047.78
2022-09-04T01:38:04.485Z,95048.22
2022-09-04T01:40:20.971Z,95045.56
2022-09-04T01:42:30.343Z,95038.44
2022-09-04T01:44:33.582Z,95043.72
2022-09-04T01:46:58.162Z,95033.13
2022-09-04T01:49:07.336Z,95039.47
2022-09-04T01:51:16.388Z,95041.66
2022-09-04T01:53:24.917Z,95050.59
2022-09-04T01:55:57.421Z,95034.50
2022-09-04T01:58:36.575Z,95045.44
2022-09-04T02:01:15.847Z,95034.91
2022-09-04T02:03:32.958Z,95034.88
2022-09-04T02:06:19.376Z,95042.03
2022-09-04T02:08:27.093Z,95032.81
2022-09-04T02:10:33.644Z,95035.50
2022-09-04T02:12:58.389Z,95032.94
2022-09-04T02:15:31.188Z,95031.44
2022-09-04T02:17:59.016Z,95039.72
2022-09-04T02:20:29.677Z,95033.81
2022-09-04T02:22:52.829Z,95039.78
2022-09-04T02:25:16.171Z,95037.47
2022-09-04T02:27:24.065Z,95035.75
2022-09-04T02:30:04.202Z,95031.38
2022-09-04T02:32:14.243Z,95018.69
2022-09-04T02:34:25.432Z,95013.72
2022-09-04T02:36:34.026Z,95016.84
2022-09-04T02:39:11.928Z,95023.03
2022-09-04T02:41:26.741Z,95018.84
2022-09-04T02:43:42.843Z,95027.22
2022-09-04T02:46:05.702Z,95035.84
2022-09-04T02:48:18.727Z,95032.78
2022-09-04T02:50:39.023Z,95031.63
2022-09-04T02:52:59.634Z,95036.88
2022-09-04T02:55:29.168Z,95041.00
2022-09-04T02:57:58.352Z,95042.00
2022-09-04T03:00:18.366Z,95040.63
2022-09-04T03:02:34.759Z,95045.41
2022-09-04T03:04:50.293Z,95043.97
2022-09-04T03:07:11.484Z,95055.28
2022-09-04T03:09:18.160Z,95053.47
2022-09-04T03:11:33.828Z,95048.28
2022-09-04T03:13:56.480Z,95050.38
2022-09-04T03:16:21.307Z,95055.03
2022-09-04T03:18:52.964Z,95055.09
2022-09-04T03:21:03.436Z,95062.84
2022-09-04T03:23:12.917Z,95053.84
2022-09-04T03:25:23.946Z,95048.72
2022-09-04T03:27:26.612Z,95056.75
2022-09-04T03:29:51.292Z,95046.16
2022-09-04T03:32:17.852Z,95049.06
2022-09-04T03:34:25.151Z,95049.66
2022-09-04T03:37:05.546Z,95045.31
2022-09-04T03:39:46.764Z,95059.13
2022-09-04T03:42:20.086Z,95067.81
2022-09-04T03:44:40.288Z,95061.34
2022-09-04T03:47:00.453Z,95065.94
2022-09-04T03:49:23.856Z,95076.59
2022-09-04T03:51:46.153Z,95076.91
2022-09-04T03:54:16.420Z,95072.19
2022-09-04T03:56:39.796Z,95077.06
2022-09-04T03:58:53.586Z,95076.47
2022-09-04T04:00:58.213Z,95083.38
2022-09-04T04:03:38.822Z,95087.63
2022-09-04T04:05:59.011Z,95092.28
2022-09-04T04:08:06.763Z,95098.50
2022-09-04T04:10:14.306Z,95105.09
2022-09-04T04:12:39.345Z,95112.94
2022-09-04T04:14:51.450Z,95125.00
2022-09-04T04:17:00.341Z,95122.00
2022-09-04T04:19:14.497Z,95120.22
2022-09-04T04:21:54.898Z,95130.03
2022-09-04T04:23:59.473Z,95131.03
2022-09-04T04:26:10.962Z,95133.31
2022-09-04T04:28:32.775Z,95133.91
2022-09-04T04:30:50.295Z,95127.22
2022-09-04T04:33:08.451Z,95131.13
2022-09-04T04:35:18.600Z,95139.16
2022-09-04T04:37:37.041Z,95145.25
2022-09-04T04:39:58.864Z,95140.16
2022-09-04T04:42:13.264Z,95132.69
2022-09-04T04:44:50.147Z,95125.78
2022-09-04T04:47:15.813Z,95126.19
2022-09-04T04:49:33.521Z,95129.47
2022-09-04T04:51:47.130Z,95139.09
2022-09-04T04:54:13.505Z,95143.25
2022-09-04T04:56:22.730Z,95149.66
2022-09-04T04:58:27.513Z,95145.78
2022-09-04T05:00:41.171Z,95144.69
2022-09-04T05:03:01.384Z,95149.34
2022-09-04T05:05:18.468Z,95145.91
2022-09-04T05:07:42.231Z,95145.91
2022-09-04T05:09:58.268Z,95142.59
2022-09-04T05:12:06.783Z,95127.47
2022-09-04T05:14:47.523Z,95129.72
2022-09-04T05:17:31.944Z,95124.06
2022-09-04T05:19:39.783Z,95131.72
2022-09-04T05:21:56.041Z,95129.78
2022-09-04T05:24:05.224Z,95133.31
2022-09-04T05:26:07.025Z,95138.16
2022-09-04T05:28:20.412Z,95150.75
2022-09-04T05:30:47.676Z,95154.03
2022-09-04T05:33:15.476Z,95150.13
2022-09-04T05:35:35.328Z,95151.66
2022-09-04T05:37:43.261Z,95143.72
2022-09-04T05:40:04.484Z,95153.41
2022-09-04T05:42:06.957Z,95159.25
2022-09-04T05:44:35.436Z,95171.56
2022-09-04T05:47:26.478Z,95158.28
2022-09-04T05:49:50.378Z,95152.25
2022-09-04T05:52:09.000Z,95157.44
2022-09-04T05:54:42.909Z,95151.44
2022-09-04T05:57:02.317Z,95154.78
2022-09-04T05:59:33.077Z,95147.06
2022-09-04T06:01:59.629Z,95141.16
2022-09-04T06:04:10.384Z,95131.38
2022-09-04T06:06:12.415Z,95120.72
2022-09-04T06:09:06.475Z,95123.84
2022-09-04T06:11:32.369Z,95126.44
2022-09-04T06:13:50.477Z,95124.94
2022-09-04T06:16:10.849Z,95122.19
2022-09-04T06:18:27.694Z,95123.25
2022-09-04T06:20:50.940Z,95127.47
2022-09-04T06:23:06.081Z,95126.13
2022-09-04T06:25:10.756Z,95120.41
2022-09-04T06:27:31.032Z,95125.66
2022-09-04T06:29:48.430Z,95122.72
2022-09-04T06:31:53.124Z,95120.84
2022-09-04T06:34:01.074Z,95117.19
2022-09-04T06:36:22.129Z,95123.81
2022-09-04T06:38:43.178Z,95126.41
2022-09-04T06:41:08.655Z,95127.28
2022-09-04T06:43:19.558Z,95125.47
2022-09-04T06:45:35.537Z,95128.69
2022-09-04T06:48:02.272Z,95125.75
2022-09-04T06:50:18.898Z,95129.25
2022-09-04T06:52:30.093Z,95131.13
2022-09-04T06:54:46.581Z,95127.28
2022-09-04T06:57:00.306Z,95122.50
2022-09-04T06:59:14.543Z,95119.34
2022-09-04T07:01:19.754Z,95119.59
2022-09-04T07:03:52.389Z,95124.81
2022-09-04T07:06:23.423Z,95124.59
2022-09-04T07:08:34.018Z,95114.81
2022-09-04T07:10:41.664Z,95114.03
2022-09-04T07:13:23.599Z,95111.63
2022-09-04T07:15:50.204Z,95121.25
2022-09-04T07:18:18.240Z,95118.97
2022-09-04T07:20:36.420Z,95119.38
2022-09-04T07:23:03.989Z,95121.63
2022-09-04T07:25:26.396Z,95124.09
2022-09-04T07:27:42.840Z,95108.97
2022-09-04T07:30:17.438Z,95106.50
2022-09-04T07:32:38.269Z,95114.84
2022-09-04T07:34:39.853Z,95116.28
2022-09-04T07:36:56.674Z,95117.56
2022-09-04T07:39:04.102Z,95116.31
2022-09-04T07:41:20.044Z,95131.09
2022-09-04T07:43:37.038Z,95133.53
2022-09-04T07:45:55.346Z,95140.84
2022-09-04T07:48:17.728Z,95142.28
2022-09-04T07:50:23.118Z,95142.91
2022-09-04T07:52:34.709Z,95149.69
2022-09-04T07:54:36.421Z,95146.41
2022-09-04T07:57:16.508Z,95142.09
2022-09-04T07:59:31.086Z,95151.03
2022-09-04T08:02:03.542Z,95151.84
2022-09-04T08:04:42.332Z,95143.31
2022-09-04T08:06:50.013Z,95146.59
2022-09-04T08:09:23.860Z,95156.78
2022-09-04T08:11:45.508Z,95159.69
2022-09-04T08:14:17.021Z,95159.69
2022-09-04T08:16:32.868Z,95158.22
2022-09-04T08:18:48.148Z,95167.38
2022-09-04T08:21:21.608Z,95159.63
2022-09-04T08:24:01.914Z,95162.91
2022-09-04T08:26:14.626Z,95163.97
2022-09-04T08:28:44.219Z,95160.94
2022-09-04T08:31:18.261Z,95163.78
2022-09-04T08:33:39.882Z,95153.38
2022-09-04T08:35:59.804Z,95147.81
2022-09-04T08:38:23.257Z,95148.78
2022-09-04T08:41:06.922Z,95148.38
2022-09-04T08:43:30.304Z,95151.47
2022-09-04T08:46:06.969Z,95151.09
2022-09-04T08:48:27.405Z,95147.91
2022-09-04T08:50:39.826Z,95145.19
2022-09-04T08:52:54.067Z,95148.13
2022-09-04T08:55:21.626Z,95132.25
2022-09-04T09:00:10.682Z,95135.88
2022-09-04T09:02:21.325Z,95130.31
2022-09-04T09:04:53.022Z,95132.44
2022-09-04T09:07:19.457Z,95137.19
2022-09-04T09:09:58.422Z,95126.03
2022-09-04T09:12:09.219Z,95140.75
2022-09-04T09:14:29.230Z,95136.44
2022-09-04T09:16:52.623Z,95141.84
2022-09-04T09:19:03.155Z,95139.91
2022-09-04T09:21:49.478Z,95132.78
2022-09-04T09:24:35.958Z,95135.44
2022-09-04T09:27:02.152Z,95137.97
2022-09-04T09:29:16.278Z,95123.72
2022-09-04T09:31:34.518Z,95130.38
2022-09-04T09:33:46.973Z,95117.44
2022-09-04T09:36:09.343Z,95130.97
2022-09-04T09:38:29.702Z,95126.72
2022-09-04T09:40:32.273Z,95118.34
2022-09-04T09:42:38.482Z,95115.19
2022-09-04T09:45:15.534Z,95112.06
2022-09-04T09:47:26.544Z,95109.25
2022-09-04T09:49:28.106Z,95110.03
2022-09-04T09:52:13.941Z,95103.28
2022-09-04T09:54:38.488Z,95104.91
2022-09-04T09:56:53.517Z,95091.75
2022-09-04T09:59:19.989Z,95091.13
2022-09-04T10:01:24.834Z,95082.09
2022-09-04T10:03:39.022Z,95078.75
2022-09-04T10:05:46.385Z,95094.44
2022-09-04T10:08:06.689Z,95096.97
2022-09-04T10:10:31.024Z,95101.34
2022-09-04T10:13:01.406Z,95098.88
2022-09-04T10:15:21.733Z,95096.78
2022-09-04T10:18:20.661Z,95084.44
2022-09-04T10:20:46.383Z,95077.78
2022-09-04T10:23:24.930Z,95075.03
2022-09-04T10:26:05.211Z,95067.41
2022-09-04T10:28:21.885Z,95070.88
2022-09-04T10:30:24.566Z,95073.53
2022-09-04T10:32:33.100Z,95075.38
2022-09-04T10:34:54.621Z,95082.22
2022-09-04T10:37:33.847Z,95076.50
2022-09-04T10:40:38.551Z,95078.63
2022-09-04T10:43:10.217Z,95073.44
2022-09-04T10:45:25.951Z,95071.81
2022-09-04T10:48:03.656Z,95060.25
2022-09-04T10:50:41.827Z,95049.09
2022-09-04T10:53:01.542Z,95049.91
2022-09-04T10:55:29.913Z,95046.81
2022-09-04T10:58:00.729Z,95049.63
2022-09-04T11:00:14.140Z,95044.69
2022-09-04T11:02:53.330Z,95041.88
2022-09-04T11:04:59.881Z,95039.16
2022-09-04T11:07:28.564Z,95036.88
2022-09-04T11:09:39.798Z,95036.44
2022-09-04T11:12:03.327Z,95031.63
2022-09-04T11:14:25.539Z,95029.47
2022-09-04T11:16:48.974Z,95032.06
2022-09-04T11:19:20.894Z,95025.38
2022-09-04T11:21:32.613Z,95023.78
2022-09-04T11:23:52.986Z,95022.41
2022-09-04T11:26:31.842Z,95022.13
2022-09-04T11:28:40.350Z,95021.66
2022-09-04T11:30:48.610Z,95024.81
2022-09-04T11:33:13.353Z,95034.94
2022-09-04T11:35:22.191Z,95037.69
2022-09-04T11:37:57.822Z,95021.72
2022-09-04T11:40:16.609Z,95008.91
2022-09-04T11:42:43.009Z,95008.22
2022-09-04T11:45:05.800Z,95012.91
2022-09-04T11:47:26.249Z,95024.41
2022-09-04T11:49:52.610Z,95018.09
2022-09-04T11:52:09.690Z,95013.69
2022-09-04T11:54:41.936Z,95012.06
2022-09-04T11:56:52.702Z,95009.00
2022-09-04T11:59:15.537Z,95009.13
2022-09-04T12:01:29.806Z,95006.53
2022-09-04T12:03:56.362Z,95000.81
2022-09-04T12:06:19.478Z,94987.06
2022-09-04T12:08:44.157Z,94980.00
2022-09-04T12:11:25.181Z,94979.66
2022-09-04T12:14:02.260Z,94984.19
2022-09-04T12:16:27.893Z,94991.69
2022-09-04T12:18:54.632Z,94977.06
2022-09-04T12:21:18.321Z,94987.22
2022-09-04T12:23:28.689Z,94988.06
2022-09-04T12:25:49.798Z,94986.81
2022-09-04T12:28:05.220Z,94985.47
2022-09-04T12:30:33.481Z,94982.41
2022-09-04T12:32:57.101Z,94989.78
2022-09-04T12:35:17.203Z,94986.28
2022-09-04T12:37:43.640Z,94983.28
2022-09-04T12:40:05.309Z,94983.84
2022-09-04T12:42:16.745Z,94984.88
2022-09-04T12:44:50.513Z,94988.97
2022-09-04T12:47:04.688Z,94986.91
2022-09-04T12:49:26.214Z,94981.13
2022-09-04T12:51:35.949Z,94989.28
2022-09-04T12:53:54.344Z,94985.69
2022-09-04T12:56:28.279Z,94985.47
2022-09-04T12:59:01.982Z,94980.97
2022-09-04T13:01:30.520Z,94979.34
2022-09-04T13:04:02.476Z,94972.06
2022-09-04T13:06:19.902Z,94970.75
2022-09-04T13:08:44.475Z,94971.78
2022-09-04T13:10:55.311Z,94973.56
2022-09-04T13:13:18.241Z,94975.75
2022-09-04T13:15:38.480Z,94982.88
2022-09-04T13:17:58.452Z,94978.44
2022-09-04T13:20:20.883Z,94975.66
2022-09-04T13:22:47.556Z,94975.13
2022-09-04T13:25:15.392Z,94972.31
2022-09-04T13:27:34.258Z,94979.06
2022-09-04T13:30:02.893Z,94976.00
2022-09-04T13:32:24.008Z,94983.47
2022-09-04T13:34:35.720Z,94982.03
2022-09-04T13:36:57.667Z,94975.09
2022-09-04T13:39:05.830Z,94973.25
2022-09-04T13:41:24.025Z,94968.75
2022-09-04T13:43:55.031Z,94969.06
2022-09-04T13:46:00.347Z,94977.47
2022-09-04T13:48:16.051Z,94979.81
2022-09-04T13:50:44.203Z,94980.50
2022-09-04T13:52:46.883Z,94972.91
2022-09-04T13:54:57.892Z,94979.75
2022-09-04T13:57:16.137Z,94991.47
2022-09-04T13:59:20.743Z,94982.91
2022-09-04T14:01:25.811Z,94986.31
2022-09-04T14:03:38.623Z,94979.81
2022-09-04T14:05:40.468Z,94982.75
2022-09-04T14:07:45.495Z,94971.84
2022-09-04T14:09:48.971Z,94973.56
2022-09-04T14:11:59.491Z,94969.06
2022-09-04T14:14:10.980Z,94969.41
2022-09-04T14:16:15.253Z,94973.16
2022-09-04T14:18:45.365Z,94971.25
2022-09-04T14:21:00.965Z,94976.75
2022-09-04T14:23:28.773Z,94969.38
2022-09-04T14:26:04.062Z,94986.75
2022-09-04T14:28:08.671Z,94985.81
2022-09-04T14:30:18.459Z,94990.56
2022-09-04T14:32:47.771Z,94986.41
2022-09-04T14:35:02.907Z,94993.63
2022-09-04T14:37:42.650Z,94998.50
2022-09-04T14:40:10.275Z,94993.19
2022-09-04T14:42:31.122Z,94992.81
2022-09-04T14:44:42.632Z,94989.56
2022-09-04T14:47:00.718Z,94986.41
2022-09-04T14:49:09.022Z,94977.13
2022-09-04T14:51:15.437Z,94978.94
2022-09-04T14:53:26.351Z,94973.56
2022-09-04T14:55:52.009Z,94979.88
2022-09-04T14:58:10.827Z,94985.03
2022-09-04T15:00:17.371Z,94979.50
2022-09-04T15:02:23.840Z,94978.34
2022-09-04T15:04:34.130Z,94975.44
2022-09-04T15:06:54.715Z,94985.13
2022-09-04T15:09:26.538Z,94988.59
2022-09-04T15:11:33.364Z,94990.47
2022-09-04T15:13:47.269Z,94991.19
2022-09-04T15:15:58.413Z,94998.03
2022-09-04T15:18:23.576Z,95002.81
2022-09-04T15:20:28.404Z,95010.72
2022-09-04T15:22:47.597Z,95011.63
2022-09-04T15:25:58.303Z,95014.19
2022-09-04T15:28:04.575Z,95013.34
2022-09-04T15:30:09.105Z,95010.34
2022-09-04T15:32:14.228Z,95006.25
2022-09-04T15:34:21.550Z,95014.78
2022-09-04T15:36:24.158Z,95010.69
2022-09-04T15:38:26.315Z,95021.38
2022-09-04T15:40:35.298Z,95017.63
2022-09-04T15:42:43.183Z,95018.06
2022-09-04T15:44:46.945Z,95025.44
2022-09-04T15:47:04.020Z,95026.19
2022-09-04T15:49:15.119Z,95031.53
2022-09-04T15:51:56.235Z,95031.91
2022-09-04T15:54:15.445Z,95022.78
2022-09-04T15:56:17.010Z,95015.50
2022-09-04T15:58:37.814Z,95020.25
2022-09-04T16:01:16.672Z,95027.53
2022-09-04T16:03:29.453Z,95032.03
2022-09-04T16:05:45.190Z,95036.34
2022-09-04T16:08:05.469Z,95043.22
2022-09-04T16:10:25.947Z,95048.47
2022-09-04T16:12:32.630Z,95049.13
2022-09-04T16:14:44.455Z,95051.91
2022-09-04T16:16:53.487Z,95046.53
2022-09-04T16:19:26.606Z,95049.38
2022-09-04T16:21:32.285Z,95043.59
2022-09-04T16:23:38.340Z,95044.91
2022-09-04T16:25:48.289Z,95058.44
2022-09-04T16:27:54.464Z,95060.31
2022-09-04T16:29:59.968Z,95059.69
2022-09-04T16:32:03.900Z,95065.66
2022-09-04T16:34:26.252Z,95070.13
2022-09-04T16:36:41.527Z,95075.72
2022-09-04T16:39:13.418Z,95074.66
2022-09-04T16:41:26.395Z,95080.66
2022-09-04T16:43:34.264Z,95088.22
2022-09-04T16:46:13.040Z,95080.25
2022-09-04T16:48:34.983Z,95085.59
2022-09-04T16:50:48.168Z,95084.19
2022-09-04T16:53:13.792Z,95086.03
2022-09-04T16:55:28.954Z,95090.78
2022-09-04T16:57:42.094Z,95088.13
2022-09-04T16:59:53.770Z,95092.59
2022-09-04T17:02:01.215Z,95094.41
2022-09-04T17:04:19.637Z,95102.16
2022-09-04T17:06:30.513Z,95095.78
2022-09-04T17:08:36.951Z,95100.63
2022-09-04T17:11:04.385Z,95104.69
2022-09-04T17:13:29.876Z,95106.25
2022-09-04T17:15:55.386Z,95108.28
2022-09-04T17:17:59.086Z,95115.09
2022-09-04T17:20:00.572Z,95108.47
2022-09-04T17:28:55.846Z,95113.63
2022-09-04T17:29:13.596Z,95123.72
2022-09-04T17:29:18.361Z,95130.44
2022-09-04T17:30:50.652Z,95125.94
2022-09-04T17:37:13.364Z,95126.56
2022-09-04T17:40:33.674Z,95132.47
2022-09-04T17:40:47.087Z,95138.97
2022-09-04T17:41:39.703Z,95146.13
2022-09-04T17:44:22.365Z,95161.84
2022-09-04T17:46:32.479Z,95163.47
2022-09-04T17:48:41.237Z,95166.13
2022-09-04T17:50:53.045Z,95169.06
2022-09-04T17:53:00.851Z,95171.53
2022-09-04T17:55:08.662Z,95169.50
2022-09-04T17:57:15.062Z,95171.53
2022-09-04T17:59:19.281Z,95170.69
2022-09-04T18:01:27.454Z,95168.25
2022-09-04T18:03:33.800Z,95179.69
2022-09-04T18:05:51.658Z,95172.94
2022-09-04T18:08:20.338Z,95175.16
2022-09-04T18:10:31.456Z,95178.03
2022-09-04T18:12:51.553Z,95174.94
2022-09-04T18:15:16.478Z,95181.06
2022-09-04T18:17:36.580Z,95180.47
2022-09-04T18:19:38.321Z,95182.91
2022-09-04T18:21:59.226Z,95179.25
2022-09-04T18:24:16.617Z,95186.00
2022-09-04T18:26:41.763Z,95185.59
2022-09-04T18:28:55.265Z,95185.78
2022-09-04T18:37:11.170Z,95189.03
2022-09-04T18:37:25.490Z,95185.16
2022-09-04T18:37:26.391Z,95192.09
2022-09-04T18:39:50.623Z,95186.59
2022-09-04T18:49:00.347Z,95179.84
2022-09-04T18:50:39.641Z,95181.91
2022-09-04T18:50:44.270Z,95187.41
2022-09-04T18:50:45.116Z,95180.84
2022-09-04T18:51:35.038Z,95180.25
2022-09-04T18:53:44.074Z,95182.69
2022-09-04T18:55:51.385Z,95184.31
2022-09-04T18:58:19.644Z,95178.81
2022-09-04T19:00:54.087Z,95175.72
2022-09-04T19:03:05.777Z,95175.97
2022-09-04T19:05:09.281Z,95176.78
2022-09-04T19:07:32.718Z,95171.66
2022-09-04T19:09:55.503Z,95169.81
2022-09-04T19:12:02.838Z,95166.31
2022-09-04T19:14:10.954Z,95164.50
2022-09-04T19:16:18.511Z,95168.19
2022-09-04T19:18:26.798Z,95165.72
2022-09-04T19:20:46.732Z,95172.28
2022-09-04T19:22:54.122Z,95174.34
2022-09-04T19:25:31.832Z,95173.50
2022-09-04T19:27:39.838Z,95177.22
2022-09-04T19:30:19.972Z,95178.06
2022-09-04T19:32:34.213Z,95184.03
2022-09-04T19:34:42.211Z,95190.78
2022-09-04T19:36:54.970Z,95195.88
2022-09-04T19:45:24.964Z,95184.16
2022-09-04T19:45:59.170Z,95196.94
2022-09-04T19:46:17.918Z,95196.06
2022-09-04T19:47:27.335Z,95202.41
2022-09-04T19:53:17.579Z,95204.84
2022-09-04T19:53:33.251Z,95201.19
2022-09-04T19:54:44.261Z,95202.44
2022-09-04T19:57:32.941Z,95204.06
2022-09-04T19:59:45.528Z,95195.91
2022-09-04T20:02:02.783Z,95198.97
2022-09-04T20:04:25.511Z,95196.91
2022-09-04T20:06:32.704Z,95201.81
2022-09-04T20:08:40.760Z,95194.72
2022-09-04T20:10:46.172Z,95206.19
2022-09-04T20:12:53.672Z,95205.81
2022-09-04T20:15:11.555Z,95203.38
2022-09-04T20:17:44.454Z,95202.59
2022-09-04T20:19:48.944Z,95201.16
2022-09-04T20:22:15.356Z,95198.94
2022-09-04T20:24:28.452Z,95198.94
2022-09-04T20:26:42.454Z,95191.97
2022-09-04T20:28:48.395Z,95198.50
2022-09-04T20:31:05.219Z,95193.38
2022-09-04T20:33:27.300Z,95195.03
2022-09-04T20:35:35.548Z,95200.59
2022-09-04T20:37:40.215Z,95201.22
2022-09-04T20:40:14.115Z,95201.63
2022-09-04T20:42:44.715Z,95202.44
2022-09-04T20:47:26.157Z,95201.81
2022-09-04T20:52:51.055Z,95205.09
2022-09-04T20:52:55.060Z,95203.47
2022-09-04T20:53:04.598Z,95196.09
2022-09-04T20:55:33.513Z,95200.59
2022-09-04T21:02:41.012Z,95191.97
2022-09-04T21:03:24.385Z,95195.44
2022-09-04T21:03:28.197Z,95196.66
2022-09-04T21:05:59.827Z,95198.50
2022-09-04T21:08:35.874Z,95194.00
2022-09-04T21:10:55.456Z,95206.69
2022-09-04T21:13:13.376Z,95190.53
2022-09-04T21:15:22.128Z,95189.94
2022-09-04T21:17:34.754Z,95199.78
2022-09-04T21:20:12.798Z,95194.06
2022-09-04T21:22:49.225Z,95195.47
2022-09-04T21:25:25.909Z,95198.94
2022-09-04T21:27:54.885Z,95193.22
2022-09-04T21:30:13.099Z,95197.72
2022-09-04T21:32:30.113Z,95196.50
2022-09-04T21:34:54.031Z,95199.38
2022-09-04T21:37:05.802Z,95195.28
2022-09-04T21:39:41.358Z,95206.94
2022-09-04T21:42:17.307Z,95205.25
2022-09-04T21:44:34.493Z,95209.13
2022-09-04T21:46:48.288Z,95210.13
2022-09-04T21:49:27.056Z,95211.13
2022-09-04T21:51:37.584Z,95222.31
2022-09-04T21:55:13.291Z,95227.44
2022-09-04T22:02:27.721Z,95223.06
2022-09-04T22:02:43.612Z,95237.31
2022-09-04T22:02:54.412Z,95222.63
2022-09-04T22:05:07.309Z,95224.06
2022-09-04T22:10:54.223Z,95225.25
2022-09-04T22:13:28.351Z,95221.09
2022-09-04T22:13:42.964Z,95221.06
2022-09-04T22:15:10.570Z,95217.97
2022-09-04T22:17:41.206Z,95218.47
2022-09-04T22:19:43.006Z,95215.47
2022-09-04T22:22:15.770Z,95211.59
2022-09-04T22:24:20.152Z,95215.28
2022-09-04T22:26:42.132Z,95213.72
2022-09-04T22:28:43.701Z,95214.84
2022-09-04T22:31:14.848Z,95214.47
2022-09-04T22:33:35.953Z,95216.78
2022-09-04T22:36:05.575Z,95213.09
2022-09-04T22:38:28.819Z,95213.03
2022-09-04T22:40:56.378Z,95217.09
2022-09-04T22:43:13.491Z,95220.16
2022-09-04T22:45:52.378Z,95217.81
2022-09-04T22:48:15.710Z,95222.91
2022-09-04T22:51:11.490Z,95222.53
2022-09-04T22:53:44.344Z,95224.41
2022-09-04T22:56:23.339Z,95227.94
2022-09-04T22:58:32.336Z,95226.91
2022-09-04T23:01:02.422Z,95230.63
2022-09-04T23:03:33.200Z,95223.91
2022-09-04T23:07:17.284Z,95225.97
2022-09-04T23:13:47.608Z,95226.41
2022-09-04T23:13:52.518Z,95229.47
2022-09-04T23:14:05.215Z,95221.75
2022-09-04T23:16:28.266Z,95220.53
2022-09-04T23:26:31.759Z,95219.91
2022-09-04T23:26:38.422Z,95214.59
2022-09-04T23:26:49.611Z,95217.25
2022-09-04T23:27:01.563Z,95220.72
2022-09-04T23:29:09.577Z,95210.25
2022-09-04T23:31:19.980Z,95218.00
2022-09-04T23:33:40.995Z,95222.44
2022-09-04T23:35:42.694Z,95214.06
2022-09-04T23:38:17.019Z,95217.09
2022-09-04T23:40:35.683Z,95217.84
2022-09-04T23:43:25.593Z,95219.88
2022-09-04T23:45:36.790Z,95219.06
2022-09-04T23:48:19.243Z,95219.44
2022-09-04T23:50:38.720Z,95222.19
2022-09-04T23:52:52.529Z,95217.00
2022-09-04T23:54:56.686Z,95213.88
2022-09-04T23:57:11.256Z,95226.94
2022-09-04T23:59:44.307Z,95220.75
